Time;durP1;ratioP1;P1;durP2;ratioP2;P2;SDS_P1;SDS_P2;PMS_P1;PMS_P2;Temp;Humidity;BMP_temperature;BMP_pressure;BME280_temperature;BME280_humidity;BME280_pressure;Samples;Min_cycle;Max_cycle;Signal;HPM_P1;HPM_P2
2021/06/03 00:01:32;;;;;;;;;25.50;21.00;;;;;10.96;90.39;100282.91;3589869;40;14589;-49
2021/06/03 00:04:00;;;;;;;;;23.25;19.00;;;;;11.15;89.73;100283.63;3588701;40;14110;-48
2021/06/03 00:06:27;;;;;;;;;23.50;20.25;;;;;11.32;88.93;100287.22;3594913;40;14123;-48
2021/06/03 00:08:54;;;;;;;;;29.00;24.25;;;;;11.34;88.06;100288.00;3597703;39;14274;-45
2021/06/03 00:11:22;;;;;;;;;48.67;36.00;;;;;11.26;88.54;100296.47;3596740;40;14283;-46
2021/06/03 00:13:50;;;;;;;;;56.33;40.00;;;;;11.23;89.35;100291.28;3590201;39;10093;-51
2021/06/03 00:16:18;;;;;;;;;53.67;40.00;;;;;11.37;89.68;100293.19;3587492;40;10781;-48
2021/06/03 00:18:46;;;;;;;;;58.67;43.00;;;;;11.40;89.31;100290.34;3591185;40;9864;-47
2021/06/03 00:21:14;;;;;;;;;51.33;40.00;;;;;11.20;89.12;100289.63;3594312;40;10095;-47
2021/06/03 00:23:42;;;;;;;;;53.00;40.67;;;;;11.11;88.86;100282.06;3592401;39;10065;-45
2021/06/03 00:26:09;;;;;;;;;42.00;26.67;;;;;10.91;90.82;100282.28;3595652;40;10837;-48
2021/06/03 00:28:36;;;;;;;;;47.00;39.33;;;;;10.51;91.71;100282.56;3595361;39;10058;-47
2021/06/03 00:31:04;;;;;;;;;30.00;25.00;;;;;10.41;90.85;100291.16;3595279;40;10811;-46
2021/06/03 00:33:31;;;;;;;;;23.50;18.50;;;;;9.85;93.79;100282.31;3592482;40;14058;-50
2021/06/03 00:35:59;;;;;;;;;23.25;19.25;;;;;9.96;93.48;100284.44;3589614;40;14281;-46
2021/06/03 00:38:26;;;;;;;;;29.25;25.75;;;;;9.84;94.07;100292.13;3588442;40;10721;-46
2021/06/03 00:40:53;;;;;;;;;22.25;18.75;;;;;9.94;93.87;100292.56;3594429;40;14629;-47
2021/06/03 00:43:21;;;;;;;;;21.50;19.50;;;;;10.67;91.64;100297.88;3591178;40;10826;-45
2021/06/03 00:45:48;;;;;;;;;18.50;17.50;;;;;10.58;89.75;100293.81;3587184;40;10926;-47
2021/06/03 00:48:16;;;;;;;;;19.25;16.75;;;;;10.56;91.13;100285.00;3594068;40;14216;-47
2021/06/03 00:50:48;;;;;;;;;23.00;17.50;;;;;10.44;91.25;100289.19;3589304;40;14076;-48
2021/06/03 00:53:17;;;;;;;;;22.00;18.50;;;;;10.43;91.17;100294.66;3591043;40;14571;-47
2021/06/03 00:55:51;;;;;;;;;25.50;18.00;;;;;10.51;91.17;100293.28;3587070;40;14542;-45
2021/06/03 00:58:19;;;;;;;;;32.00;28.67;;;;;10.54;90.57;100292.25;3591577;40;14059;-47
2021/06/03 01:00:49;;;;;;;;;48.33;30.67;;;;;10.41;91.11;100286.66;3593585;40;10345;-48
2021/06/03 01:03:17;;;;;;;;;41.00;32.00;;;;;10.30;92.21;100295.25;3591220;40;9851;-46
2021/06/03 01:05:53;;;;;;;;;51.33;38.33;;;;;10.27;91.67;100298.09;3590452;40;10459;-47
2021/06/03 01:08:30;;;;;;;;;43.33;38.33;;;;;9.97;92.88;100296.91;3587452;40;10070;-49
2021/06/03 01:11:07;;;;;;;;;50.67;34.33;;;;;9.80;93.18;100300.44;3586087;40;9891;-47
2021/06/03 01:14:09;;;;;;;;;48.33;36.67;;;;;10.14;92.61;100299.63;3591013;40;10059;-48
2021/06/03 01:16:37;;;;;;;;;34.67;27.33;;;;;10.19;91.88;100296.69;3584272;40;10388;-47
2021/06/03 01:19:15;;;;;;;;;26.00;22.25;;;;;9.71;92.89;100298.16;3594989;39;10683;-47
2021/06/03 01:22:00;;;;;;;;;27.33;23.33;;;;;10.20;91.31;100304.69;3593597;40;10451;-50
2021/06/03 01:24:41;;;;;;;;;27.00;23.00;;;;;10.00;92.29;100304.78;3578329;40;10335;-45
2021/06/03 01:27:16;;;;;;;;;24.50;21.00;;;;;9.87;92.08;100304.53;3586194;40;11103;-49
2021/06/03 01:30:00;;;;;;;;;29.33;25.67;;;;;10.03;91.69;100313.59;3594648;40;10080;-48
2021/06/03 01:32:30;;;;;;;;;25.33;21.67;;;;;10.37;90.38;100300.31;3589728;40;10496;-50
2021/06/03 01:34:59;;;;;;;;;21.50;17.75;;;;;9.99;91.12;100303.06;3589245;40;10790;-48
2021/06/03 01:37:27;;;;;;;;;22.25;16.75;;;;;10.06;91.67;100309.88;3586858;40;11006;-46
2021/06/03 01:39:57;;;;;;;;;23.67;17.67;;;;;10.02;92.12;100313.66;3586371;40;14058;-48
2021/06/03 01:42:24;;;;;;;;;16.75;15.75;;;;;10.03;91.26;100308.22;3587790;40;10808;-45
2021/06/03 01:44:52;;;;;;;;;22.75;18.50;;;;;9.86;90.92;100309.03;3595708;39;10755;-46
2021/06/03 01:47:19;;;;;;;;;26.25;13.00;;;;;10.00;91.56;100307.47;3595674;40;14934;-46
2021/06/03 01:49:47;;;;;;;;;19.50;16.75;;;;;10.01;92.12;100315.47;3587221;40;10877;-46
2021/06/03 01:52:15;;;;;;;;;22.75;20.50;;;;;10.16;92.09;100312.97;3587221;40;10867;-49
2021/06/03 01:54:43;;;;;;;;;21.00;20.50;;;;;10.26;91.23;100307.03;3588495;40;10859;-51
2021/06/03 01:57:11;;;;;;;;;22.00;18.00;;;;;10.43;90.94;100302.69;3594406;40;14039;-47
2021/06/03 01:59:38;;;;;;;;;21.00;17.25;;;;;10.60;88.74;100308.06;3592242;39;10890;-47
2021/06/03 02:02:06;;;;;;;;;22.25;21.75;;;;;10.55;89.39;100310.09;3588245;40;14068;-47
2021/06/03 02:04:33;;;;;;;;;26.75;23.25;;;;;10.42;90.71;100303.63;3595068;40;14266;-47
2021/06/03 02:07:01;;;;;;;;;26.00;20.50;;;;;10.41;90.46;100313.50;3592635;39;10935;-48
2021/06/03 02:09:28;;;;;;;;;17.00;17.00;;;;;10.18;92.17;100319.97;3586151;40;14055;-49
2021/06/03 02:11:57;;;;;;;;;23.00;21.00;;;;;10.01;92.05;100319.97;3592133;40;14067;-45
2021/06/03 02:14:32;;;;;;;;;27.00;23.25;;;;;9.72;93.20;100321.38;3593834;40;14119;-47
2021/06/03 02:17:09;;;;;;;;;26.75;21.25;;;;;9.79;93.31;100326.34;3585788;40;14286;-50
2021/06/03 02:19:58;;;;;;;;;24.25;18.25;;;;;9.47;92.80;100327.03;3592507;40;14083;-47
2021/06/03 02:22:27;;;;;;;;;21.50;18.25;;;;;9.18;94.04;100326.56;3596040;40;14058;-49
2021/06/03 02:24:55;;;;;;;;;25.33;21.00;;;;;9.25;94.14;100330.69;3591211;40;14060;-51
2021/06/03 02:27:23;;;;;;;;;26.33;22.67;;;;;9.30;92.60;100328.69;3594540;40;10571;-53
2021/06/03 02:29:51;;;;;;;;;17.00;16.00;;;;;9.83;90.85;100325.28;3590949;39;10442;-47
2021/06/03 02:32:21;;;;;;;;;20.67;17.00;;;;;9.62;89.94;100328.97;3595599;39;10475;-47
2021/06/03 02:34:52;;;;;;;;;20.50;16.75;;;;;9.35;92.00;100323.97;3595595;40;10957;-50
2021/06/03 02:37:20;;;;;;;;;37.00;32.67;;;;;9.51;91.52;100329.50;3596469;40;9883;-49
2021/06/03 02:39:48;;;;;;;;;72.50;58.50;;;;;9.40;91.94;100335.34;3588243;40;10886;-45
2021/06/03 02:42:19;;;;;;;;;56.67;44.33;;;;;9.57;91.30;100322.97;3586781;40;10311;-47
2021/06/03 02:44:46;;;;;;;;;47.00;38.00;;;;;9.58;91.21;100327.38;3591337;40;9944;-49
2021/06/03 02:47:13;;;;;;;;;26.00;22.33;;;;;9.58;91.41;100322.88;3596311;39;10596;-47
2021/06/03 02:49:41;;;;;;;;;31.33;30.00;;;;;9.73;90.99;100323.09;3595894;40;9948;-50
2021/06/03 02:52:08;;;;;;;;;29.33;24.33;;;;;9.77;90.40;100327.38;3596196;39;10148;-50
2021/06/03 02:54:37;;;;;;;;;24.00;20.67;;;;;9.80;90.97;100337.97;3595268;39;11024;-51
2021/06/03 02:57:05;;;;;;;;;23.67;20.33;;;;;9.92;90.73;100336.50;3590394;40;10458;-46
2021/06/03 02:59:32;;;;;;;;;26.00;20.67;;;;;9.81;90.89;100340.56;3594432;40;10243;-47
2021/06/03 03:02:01;;;;;;;;;23.33;20.00;;;;;9.83;91.12;100341.38;3586788;40;10572;-49
2021/06/03 03:04:28;;;;;;;;;20.00;20.00;;;;;9.83;90.50;100338.69;3592863;40;10566;-47
2021/06/03 03:06:55;;;;;;;;;20.00;17.00;;;;;9.92;90.58;100348.09;3585873;40;10849;-48
2021/06/03 03:09:23;;;;;;;;;20.75;18.75;;;;;9.92;89.92;100348.09;3586243;40;11094;-46
2021/06/03 03:11:50;;;;;;;;;20.75;17.00;;;;;10.18;89.00;100354.00;3591636;40;10912;-47
2021/06/03 03:14:18;;;;;;;;;21.25;20.00;;;;;10.12;89.01;100365.91;3588908;40;14066;-47
2021/06/03 03:16:45;;;;;;;;;25.75;18.75;;;;;10.15;89.51;100357.72;3590294;40;10783;-47
2021/06/03 03:19:12;;;;;;;;;12.75;9.75;;;;;10.10;89.37;100357.06;3587700;40;14064;-47
2021/06/03 03:21:40;;;;;;;;;19.00;15.00;;;;;10.24;87.24;100357.28;3587612;40;14699;-47
2021/06/03 03:24:07;;;;;;;;;21.00;16.50;;;;;10.37;87.96;100354.00;3593628;40;14236;-49
2021/06/03 03:26:35;;;;;;;;;17.50;16.50;;;;;10.30;87.67;100365.03;3597033;39;14806;-48
2021/06/03 03:29:02;;;;;;;;;22.75;17.75;;;;;10.27;88.65;100365.19;3595594;40;10787;-48
2021/06/03 03:31:30;;;;;;;;;21.00;17.50;;;;;10.39;87.67;100370.91;3590574;40;14059;-49
2021/06/03 03:34:02;;;;;;;;;23.00;19.00;;;;;10.60;85.53;100360.91;3587575;40;14144;-48
2021/06/03 03:36:30;;;;;;;;;15.50;15.00;;;;;10.70;86.41;100363.03;3587829;40;14356;-48
2021/06/03 03:38:58;;;;;;;;;20.25;15.25;;;;;10.70;87.42;100367.53;3596487;40;14041;-47
2021/06/03 03:41:25;;;;;;;;;21.00;16.75;;;;;10.51;88.47;100367.59;3597267;39;14282;-49
2021/06/03 03:43:53;;;;;;;;;22.00;19.50;;;;;10.81;84.94;100375.03;3597606;39;14089;-46
2021/06/03 03:46:20;;;;;;;;;17.75;16.50;;;;;10.49;87.46;100374.88;3590819;40;14112;-46
2021/06/03 03:48:48;;;;;;;;;18.00;17.25;;;;;10.38;88.76;100371.84;3596643;40;14029;-45
2021/06/03 03:51:15;;;;;;;;;18.00;18.00;;;;;10.68;87.63;100370.28;3591460;39;14256;-47
2021/06/03 03:53:44;;;;;;;;;17.50;17.50;;;;;10.87;86.64;100369.34;3589621;40;14574;-46
2021/06/03 03:56:12;;;;;;;;;18.50;17.50;;;;;11.16;83.87;100371.41;3597167;40;14044;-47
2021/06/03 03:58:43;;;;;;;;;15.50;15.25;;;;;11.09;85.08;100375.34;3587926;39;14552;-50
2021/06/03 04:01:11;;;;;;;;;17.25;17.25;;;;;11.02;86.65;100371.25;3590137;40;14035;-50
2021/06/03 04:03:39;;;;;;;;;22.50;17.00;;;;;11.26;83.98;100373.56;3596412;39;14133;-48
2021/06/03 04:06:07;;;;;;;;;18.00;14.25;;;;;11.54;81.42;100379.22;3595971;40;14064;-45
2021/06/03 04:08:35;;;;;;;;;14.25;13.00;;;;;11.75;79.99;100379.00;3587406;40;14043;-45
2021/06/03 04:11:03;;;;;;;;;14.50;13.00;;;;;11.78;80.52;100368.91;3593686;40;14093;-46
2021/06/03 04:13:30;;;;;;;;;16.75;13.50;;;;;11.66;80.39;100374.97;3593202;40;14048;-47
2021/06/03 04:15:58;;;;;;;;;18.00;13.75;;;;;11.69;80.98;100376.63;3596646;39;14147;-49
2021/06/03 04:18:25;;;;;;;;;16.75;15.75;;;;;11.89;78.36;100376.41;3589204;40;14258;-47
2021/06/03 04:20:53;;;;;;;;;18.00;14.25;;;;;12.11;77.80;100383.28;3590784;40;14053;-47
2021/06/03 04:23:20;;;;;;;;;13.50;13.50;;;;;11.77;79.26;100385.13;3596350;40;14266;-47
2021/06/03 04:25:48;;;;;;;;;14.25;14.00;;;;;11.70;80.69;100381.94;3596864;39;14030;-47
2021/06/03 04:28:16;;;;;;;;;18.50;15.00;;;;;11.59;81.54;100387.03;3596737;40;14070;-49
2021/06/03 04:30:45;;;;;;;;;17.00;14.75;;;;;11.46;82.53;100388.66;3594318;40;14084;-47
2021/06/03 04:33:15;;;;;;;;;18.75;16.75;;;;;11.39;83.34;100393.47;3596880;39;14619;-47
2021/06/03 04:35:43;;;;;;;;;21.00;16.75;;;;;11.66;83.13;100391.09;3593967;39;14031;-45
2021/06/03 04:38:10;;;;;;;;;19.00;15.25;;;;;11.85;82.23;100391.84;3597044;39;14038;-47
2021/06/03 04:40:37;;;;;;;;;19.00;15.00;;;;;11.86;82.53;100398.13;3592287;40;14081;-50
2021/06/03 04:43:05;;;;;;;;;16.25;15.00;;;;;12.58;78.35;100393.13;3597420;40;14236;-46
2021/06/03 04:45:36;;;;;;;;;17.00;14.25;;;;;13.05;75.42;100398.38;3596493;40;14009;-49
2021/06/03 04:48:06;;;;;;;;;16.25;15.75;;;;;12.71;76.10;100396.84;3602204;39;14126;-49
2021/06/03 04:50:35;;;;;;;;;18.25;14.25;;;;;12.70;76.85;100397.81;3596719;39;14032;-49
2021/06/03 04:53:03;;;;;;;;;11.50;9.25;;;;;12.66;77.02;100405.19;3595478;40;14107;-45
2021/06/03 04:55:31;;;;;;;;;15.50;9.25;;;;;12.88;75.99;100399.41;3597679;39;14041;-49
2021/06/03 04:58:01;;;;;;;;;18.00;14.25;;;;;13.05;75.34;100405.63;3594301;39;14011;-49
2021/06/03 05:00:38;;;;;;;;;14.00;14.00;;;;;12.91;76.22;100401.94;3594319;40;14226;-50
2021/06/03 05:03:07;;;;;;;;;13.00;10.75;;;;;13.39;73.65;100405.31;3587065;40;14606;-49
2021/06/03 05:05:36;;;;;;;;;12.25;11.75;;;;;13.47;74.13;100406.69;3588991;40;14118;-48
2021/06/03 05:08:05;;;;;;;;;16.50;11.00;;;;;13.72;72.28;100408.72;3594934;40;14256;-47
2021/06/03 05:10:33;;;;;;;;;14.00;10.00;;;;;13.80;72.17;100417.22;3604839;39;14230;-51
2021/06/03 05:13:01;;;;;;;;;17.25;14.00;;;;;13.96;72.26;100411.69;3586971;40;14651;-47
2021/06/03 05:15:30;;;;;;;;;11.00;10.00;;;;;14.12;70.16;100415.13;3587486;40;14222;-50
2021/06/03 05:17:57;;;;;;;;;15.50;12.00;;;;;14.39;68.80;100407.06;3587326;40;14156;-49
2021/06/03 05:20:28;;;;;;;;;13.50;11.50;;;;;14.30;70.34;100410.38;3586897;40;14056;-47
2021/06/03 05:22:59;;;;;;;;;15.00;12.00;;;;;14.43;69.82;100407.75;3595442;40;14162;-47
2021/06/03 05:25:31;;;;;;;;;13.50;11.50;;;;;14.53;68.57;100416.97;3596912;40;14038;-50
2021/06/03 05:27:59;;;;;;;;;13.25;11.25;;;;;14.82;67.45;100420.44;3595620;39;14006;-50
2021/06/03 05:30:27;;;;;;;;;13.50;11.00;;;;;15.11;66.46;100418.47;3589879;40;14028;-47
2021/06/03 05:32:55;;;;;;;;;12.00;10.75;;;;;15.47;65.32;100416.88;3595195;40;14078;-48
2021/06/03 05:35:24;;;;;;;;;11.75;11.75;;;;;15.63;66.50;100423.91;3588012;40;14088;-47
2021/06/03 05:37:51;;;;;;;;;10.25;9.75;;;;;15.69;65.87;100426.22;3596193;39;14042;-49
2021/06/03 05:40:23;;;;;;;;;16.75;12.50;;;;;15.83;67.08;100420.69;3587136;40;14134;-50
2021/06/03 05:42:53;;;;;;;;;13.00;11.50;;;;;16.12;65.51;100428.56;3587343;40;14269;-47
2021/06/03 05:45:21;;;;;;;;;13.75;12.00;;;;;15.99;65.88;100434.84;3596721;40;14031;-49
2021/06/03 05:47:50;;;;;;;;;14.00;13.25;;;;;16.07;65.90;100436.16;3587174;40;14049;-49
2021/06/03 05:50:21;;;;;;;;;11.25;9.75;;;;;16.40;63.71;100438.22;3595344;40;14119;-50
2021/06/03 05:52:50;;;;;;;;;9.00;9.00;;;;;16.58;64.49;100436.84;3589924;40;13962;-48
2021/06/03 05:55:18;;;;;;;;;14.00;11.75;;;;;16.66;62.10;100441.69;3596746;39;14167;-48
2021/06/03 05:57:47;;;;;;;;;15.75;12.75;;;;;16.65;61.46;100443.56;3586953;39;13964;-47
2021/06/03 06:00:22;;;;;;;;;10.50;8.75;;;;;16.24;63.70;100446.59;3589055;40;14465;-48
2021/06/03 06:03:04;;;;;;;;;9.00;9.00;;;;;16.61;62.35;100447.50;3594175;39;14053;-50
2021/06/03 06:08:18;;;;;;;;;10.25;9.00;;;;;17.84;58.66;100458.94;3586793;40;13951;-48
2021/06/03 06:10:45;;;;;;;;;14.00;10.50;;;;;18.16;56.57;100462.63;3592183;40;13933;-47
2021/06/03 06:13:13;;;;;;;;;11.75;10.50;;;;;18.31;56.67;100467.84;3587974;40;13972;-50
2021/06/03 06:15:41;;;;;;;;;8.25;6.00;;;;;18.40;53.82;100467.06;3596073;40;13960;-48
2021/06/03 06:18:09;;;;;;;;;8.75;8.00;;;;;18.67;54.00;100468.50;3592323;39;12887;-49
2021/06/03 06:20:38;;;;;;;;;10.00;9.00;;;;;19.26;53.31;100468.09;3587002;40;12909;-47
2021/06/03 06:23:07;;;;;;;;;7.25;7.25;;;;;19.21;51.22;100464.91;3586170;40;12770;-47
2021/06/03 06:25:35;;;;;;;;;8.75;8.25;;;;;19.76;48.87;100464.75;3586135;40;12958;-47
2021/06/03 06:28:03;;;;;;;;;7.25;7.00;;;;;19.25;48.01;100469.09;3590314;40;12785;-51
2021/06/03 06:30:33;;;;;;;;;7.25;7.00;;;;;18.76;49.42;100456.91;3593355;40;12322;-50
2021/06/03 06:33:01;;;;;;;;;6.00;6.00;;;;;19.58;45.23;100464.44;3587472;39;12510;-48
2021/06/03 06:35:28;;;;;;;;;7.50;6.25;;;;;19.36;47.22;100460.00;3595822;40;12797;-50
2021/06/03 06:37:56;;;;;;;;;6.00;6.00;;;;;19.07;44.15;100468.81;3595459;39;12688;-51
2021/06/03 06:40:26;;;;;;;;;9.00;6.00;;;;;18.84;45.66;100459.84;3589953;40;12369;-46
2021/06/03 06:42:54;;;;;;;;;7.25;7.25;;;;;18.95;45.79;100465.22;3593184;39;12781;-48
2021/06/03 06:45:27;;;;;;;;;7.00;6.00;;;;;20.04;43.94;100463.19;3586758;40;12719;-47
2021/06/03 06:47:55;;;;;;;;;8.50;6.00;;;;;19.95;43.96;100462.97;3589040;40;12580;-48
2021/06/03 06:50:26;;;;;;;;;7.00;7.00;;;;;20.24;45.66;100455.94;3599970;39;12302;-50
2021/06/03 06:52:54;;;;;;;;;6.50;6.50;;;;;21.04;43.37;100460.44;3597150;40;12047;-47
2021/06/03 06:55:22;;;;;;;;;8.25;5.50;;;;;21.04;40.88;100463.19;3596766;39;11963;-50
2021/06/03 06:57:52;;;;;;;;;6.00;5.50;;;;;20.60;41.90;100462.69;3590075;40;11421;-52
2021/06/03 07:00:24;;;;;;;;;5.00;5.00;;;;;21.26;40.10;100462.03;3590715;40;11280;-50
2021/06/03 07:02:52;;;;;;;;;6.75;6.75;;;;;21.24;40.24;100467.63;3591533;40;11295;-47
2021/06/03 07:05:20;;;;;;;;;5.25;5.00;;;;;21.37;38.61;100463.75;3595930;40;11337;-48
2021/06/03 07:07:47;;;;;;;;;5.50;4.00;;;;;21.30;38.49;100463.47;3587486;39;10756;-48
2021/06/03 07:10:15;;;;;;;;;3.75;3.00;;;;;20.35;39.63;100461.28;3587949;40;10560;-48
2021/06/03 07:12:44;;;;;;;;;6.00;5.50;;;;;21.56;39.01;100473.81;3594867;39;11853;-48
2021/06/03 07:15:14;;;;;;;;;5.50;5.50;;;;;21.25;38.19;100469.38;3603363;39;10589;-50
2021/06/03 07:17:42;;;;;;;;;5.00;4.00;;;;;20.53;39.89;100470.50;3603812;39;10455;-49
2021/06/03 07:20:14;;;;;;;;;31.75;30.00;;;;;21.15;40.75;100471.22;3605486;39;10857;-51
2021/06/03 07:22:48;;;;;;;;;7.50;6.75;;;;;22.36;39.30;100472.47;3602570;39;14558;-49
2021/06/03 07:25:19;;;;;;;;;7.75;4.75;;;;;20.27;39.64;100467.41;3595305;39;10726;-47
2021/06/03 07:27:49;;;;;;;;;6.25;5.25;;;;;20.30;40.05;100472.63;3593358;40;10655;-49
2021/06/03 07:30:20;;;;;;;;;5.00;5.00;;;;;21.39;38.95;100469.97;3590692;40;10882;-46
2021/06/03 07:32:48;;;;;;;;;6.50;4.00;;;;;21.09;39.58;100469.09;3589299;39;11133;-51
2021/06/03 07:35:16;;;;;;;;;8.50;7.00;;;;;21.34;37.76;100464.03;3604659;39;11025;-50
2021/06/03 07:37:46;;;;;;;;;7.00;5.00;;;;;21.10;39.26;100468.06;3596307;40;10885;-47
2021/06/03 07:40:20;;;;;;;;;5.25;4.50;;;;;20.90;38.79;100469.91;3597014;40;11524;-49
2021/06/03 07:42:50;;;;;;;;;8.00;5.00;;;;;21.10;39.02;100468.06;3593699;40;11028;-50
2021/06/03 07:45:22;;;;;;;;;3.00;3.00;;;;;19.97;39.62;100471.03;3588010;40;10635;-51
2021/06/03 07:47:53;;;;;;;;;7.00;5.00;;;;;20.63;39.88;100467.84;3597060;39;11002;-52
2021/06/03 07:50:21;;;;;;;;;4.25;4.25;;;;;21.09;39.99;100462.72;3602705;39;11003;-50
2021/06/03 07:52:50;;;;;;;;;6.50;5.50;;;;;21.15;37.89;100463.03;3592450;39;11212;-49
2021/06/03 07:55:19;;;;;;;;;7.75;6.75;;;;;21.61;38.86;100464.16;3591766;40;11275;-51
2021/06/03 07:57:54;;;;;;;;;7.50;5.00;;;;;21.50;38.08;100464.34;3590227;40;11026;-54
2021/06/03 08:00:28;;;;;;;;;3.00;3.00;;;;;20.97;38.22;100473.78;3595167;39;11077;-53
2021/06/03 08:02:56;;;;;;;;;7.00;5.00;;;;;21.41;38.71;100468.81;3593577;39;10500;-52
2021/06/03 08:05:26;;;;;;;;;6.00;5.75;;;;;21.67;40.73;100473.66;3596146;39;10443;-51
2021/06/03 08:07:54;;;;;;;;;5.67;4.00;;;;;21.33;38.37;100470.47;3589014;40;10891;-51
2021/06/03 08:10:28;;;;;;;;;7.00;6.00;;;;;20.93;39.96;100468.75;3586780;40;10838;-52
2021/06/03 08:12:59;;;;;;;;;6.25;5.00;;;;;22.09;38.32;100468.66;3586921;40;10625;-51
2021/06/03 08:15:29;;;;;;;;;7.00;5.00;;;;;22.09;38.31;100463.19;3587977;40;11059;-49
2021/06/03 08:17:57;;;;;;;;;7.75;5.25;;;;;20.95;40.05;100459.41;3587810;40;10471;-51
2021/06/03 08:20:39;;;;;;;;;7.00;5.00;;;;;21.90;38.39;100472.28;3592027;40;11255;-53
2021/06/03 08:23:09;;;;;;;;;5.00;4.75;;;;;21.87;38.16;100464.38;3587453;40;10742;-53
2021/06/03 08:25:37;;;;;;;;;6.00;4.67;;;;;22.07;38.54;100467.09;3587779;40;10954;-51
2021/06/03 08:28:04;;;;;;;;;2.00;2.00;;;;;21.84;37.17;100469.31;3587487;40;10241;-52
2021/06/03 08:30:36;;;;;;;;;6.00;6.00;;;;;22.19;37.70;100481.44;3593054;39;10260;-54
2021/06/03 08:33:06;;;;;;;;;6.00;5.00;;;;;21.27;39.14;100472.81;3597787;40;9958;-50
2021/06/03 08:35:34;;;;;;;;;8.75;7.00;;;;;22.02;38.79;100477.59;3597233;39;10477;-51
2021/06/03 08:38:06;;;;;;;;;3.00;3.00;;;;;22.73;36.57;100472.38;3597880;39;10593;-53
2021/06/03 08:40:58;;;;;;;;;4.00;4.00;;;;;22.18;36.40;100472.34;3597061;40;10232;-51
2021/06/03 08:43:28;;;;;;;;;5.00;5.00;;;;;22.34;36.65;100477.22;3597147;40;10070;-49
2021/06/03 08:45:58;;;;;;;;;6.33;6.00;;;;;22.93;37.48;100484.09;3597936;40;10143;-48
2021/06/03 08:48:26;;;;;;;;;5.67;5.00;;;;;21.45;38.47;100472.97;3596441;40;10195;-52
2021/06/03 08:51:05;;;;;;;;;7.67;7.00;;;;;22.51;38.00;100481.91;3597042;40;10361;-52
2021/06/03 08:53:34;;;;;;;;;6.67;5.33;;;;;22.46;37.86;100481.50;3597452;39;10408;-50
2021/06/03 08:56:17;;;;;;;;;6.00;6.00;;;;;22.83;36.79;100479.66;3592761;40;10166;-54
2021/06/03 08:59:01;;;;;;;;;5.00;5.00;;;;;22.96;37.14;100477.41;3587034;40;10180;-52
2021/06/03 09:01:31;;;;;;;;;4.33;4.33;;;;;22.93;37.79;100473.13;3591508;40;9860;-54
2021/06/03 09:03:59;;;;;;;;;6.00;5.00;;;;;23.27;35.54;100480.66;3590335;40;9773;-54
2021/06/03 09:06:32;;;;;;;;;5.33;5.00;;;;;22.85;35.44;100478.50;3593838;40;10051;-52
2021/06/03 09:09:00;;;;;;;;;5.67;4.67;;;;;23.17;35.46;100474.41;3589971;40;9743;-49
2021/06/03 09:11:30;;;;;;;;;5.67;5.67;;;;;22.70;38.18;100471.84;3595837;39;9845;-52
2021/06/03 09:14:05;;;;;;;;;7.00;6.00;;;;;23.18;38.59;100482.47;3591022;40;9839;-53
2021/06/03 09:16:38;;;;;;;;;5.33;5.33;;;;;22.71;36.74;100474.41;3586326;40;9771;-50
2021/06/03 09:19:13;;;;;;;;;8.00;5.33;;;;;22.74;37.41;100473.25;3596250;40;10269;-53
2021/06/03 09:21:51;;;;;;;;;6.67;5.33;;;;;23.26;36.81;100476.22;3586852;40;9915;-56
2021/06/03 09:24:23;;;;;;;;;6.00;6.00;;;;;22.46;37.42;100467.81;3596595;39;9735;-51
2021/06/03 09:27:01;;;;;;;;;6.67;5.67;;;;;22.69;38.29;100468.22;3590094;40;10341;-53
2021/06/03 09:29:32;;;;;;;;;7.00;4.67;;;;;22.47;37.76;100472.25;3591022;39;10173;-52
2021/06/03 09:32:07;;;;;;;;;5.67;5.67;;;;;22.91;36.71;100466.94;3593182;40;10466;-55
2021/06/03 09:34:36;;;;;;;;;7.33;7.00;;;;;22.99;35.68;100461.56;3591316;40;10318;-53
2021/06/03 09:37:08;;;;;;;;;5.00;3.67;;;;;23.01;36.40;100464.16;3586149;40;10045;-53
2021/06/03 09:39:39;;;;;;;;;6.00;6.00;;;;;22.86;36.57;100455.59;3586233;40;10059;-53
2021/06/03 09:42:08;;;;;;;;;7.67;5.67;;;;;23.19;36.00;100467.75;3588702;40;9819;-49
2021/06/03 09:44:56;;;;;;;;;7.33;5.67;;;;;23.18;36.59;100462.44;3591548;40;10532;-51
2021/06/03 09:47:35;;;;;;;;;6.67;5.67;;;;;22.83;36.29;100455.91;3589493;40;10089;-50
2021/06/03 09:50:07;;;;;;;;;7.00;7.00;;;;;23.17;37.29;100468.91;3592088;40;9942;-51
2021/06/03 09:52:37;;;;;;;;;7.33;6.00;;;;;22.02;37.61;100459.31;3589297;39;10833;-47
2021/06/03 09:55:11;;;;;;;;;5.00;5.00;;;;;22.41;38.05;100450.97;3593427;40;10202;-50
2021/06/03 09:57:43;;;;;;;;;6.33;6.33;;;;;22.55;37.69;100461.41;3590088;40;10461;-49
2021/06/03 10:00:19;;;;;;;;;8.25;6.00;;;;;22.42;38.54;100451.84;3594932;40;10251;-49
2021/06/03 10:02:53;;;;;;;;;6.75;6.50;;;;;23.71;36.76;100453.28;3593976;40;10633;-49
2021/06/03 10:05:23;;;;;;;;;7.00;5.75;;;;;23.28;36.06;100454.16;3595029;39;10449;-52
2021/06/03 10:08:01;;;;;;;;;5.00;5.00;;;;;23.11;36.67;100451.22;3592926;39;10438;-50
2021/06/03 10:10:37;;;;;;;;;8.33;7.00;;;;;23.48;35.71;100460.28;3586005;39;10129;-53
2021/06/03 10:13:08;;;;;;;;;8.00;7.00;;;;;23.49;34.68;100462.03;3595317;39;10414;-50
2021/06/03 10:15:41;;;;;;;;;8.00;7.00;;;;;23.22;35.71;100453.75;3595274;39;10347;-56
2021/06/03 10:18:15;;;;;;;;;8.00;6.33;;;;;23.13;37.41;100451.09;3589069;39;9869;-50
2021/06/03 10:20:54;;;;;;;;;5.67;5.67;;;;;23.49;36.25;100456.56;3593224;40;10319;-50
2021/06/03 10:23:26;;;;;;;;;7.00;6.33;;;;;23.21;36.31;100454.75;3593104;39;10041;-50
2021/06/03 10:26:05;;;;;;;;;6.67;3.67;;;;;23.70;36.19;100454.31;3588779;39;9932;-51
2021/06/03 10:28:34;;;;;;;;;7.00;6.00;;;;;23.72;35.41;100445.94;3593861;39;9820;-50
2021/06/03 10:31:12;;;;;;;;;5.67;4.33;;;;;23.45;36.07;100445.88;3589365;40;9878;-49
2021/06/03 10:33:41;;;;;;;;;10.00;8.00;;;;;23.18;36.47;100448.75;3588709;39;9862;-52
2021/06/03 10:36:13;;;;;;;;;6.00;4.00;;;;;23.44;36.90;100441.44;3596938;40;9971;-51
2021/06/03 10:38:41;;;;;;;;;7.33;4.67;;;;;23.36;36.21;100440.50;3586878;40;9990;-50
2021/06/03 10:41:12;;;;;;;;;7.33;6.00;;;;;23.76;37.22;100448.19;3588993;40;9902;-51
2021/06/03 10:43:40;;;;;;;;;5.00;5.00;;;;;23.05;37.00;100442.81;3589026;40;9820;-52
2021/06/03 10:46:09;;;;;;;;;6.33;5.00;;;;;22.76;37.59;100441.97;3596256;40;9939;-50
2021/06/03 10:48:36;;;;;;;;;6.00;5.67;;;;;23.38;36.62;100447.56;3587830;40;9987;-50
2021/06/03 10:51:07;;;;;;;;;6.33;5.67;;;;;22.89;36.32;100447.06;3589468;40;10059;-52
2021/06/03 10:53:46;;;;;;;;;6.33;5.67;;;;;23.35;36.77;100455.22;3588391;40;10205;-50
2021/06/03 10:56:21;;;;;;;;;6.33;6.33;;;;;23.20;36.06;100435.75;3588272;40;10035;-52
2021/06/03 10:58:50;;;;;;;;;8.67;8.00;;;;;23.34;37.48;100442.53;3587457;40;10030;-53
2021/06/03 11:01:20;;;;;;;;;6.00;6.00;;;;;22.90;36.76;100437.81;3595431;40;10067;-51
2021/06/03 11:03:59;;;;;;;;;6.67;6.67;;;;;22.65;38.33;100427.66;3591174;39;10202;-50
2021/06/03 11:06:30;;;;;;;;;8.00;8.00;;;;;23.32;36.01;100418.03;3590742;40;10544;-51
2021/06/03 11:09:01;;;;;;;;;7.33;5.33;;;;;22.85;36.62;100428.34;3586685;40;10548;-47
2021/06/03 11:11:36;;;;;;;;;10.00;9.00;;;;;23.18;37.10;100433.16;3586790;40;10207;-49
2021/06/03 11:14:11;;;;;;;;;8.67;8.00;;;;;23.36;36.28;100429.53;3590742;40;10063;-47
2021/06/03 11:16:41;;;;;;;;;10.67;7.67;;;;;23.08;36.93;100426.91;3594972;40;10061;-48
2021/06/03 11:19:10;;;;;;;;;7.50;7.50;;;;;23.88;36.87;100433.22;3595949;39;10574;-53
2021/06/03 11:21:45;;;;;;;;;6.00;5.67;;;;;23.62;37.04;100424.09;3595836;39;10567;-48
2021/06/03 11:24:24;;;;;;;;;8.00;7.00;;;;;23.66;36.17;100411.75;3595659;40;9790;-52
2021/06/03 11:26:58;;;;;;;;;6.33;6.33;;;;;23.72;37.33;100415.78;3596059;40;9904;-56
2021/06/03 11:29:38;;;;;;;;;10.33;7.33;;;;;23.85;37.13;100419.78;3589351;40;9828;-51
2021/06/03 11:32:06;;;;;;;;;11.00;11.00;;;;;24.20;36.86;100428.91;3594005;39;10302;-50
2021/06/03 11:34:39;;;;;;;;;8.67;7.00;;;;;23.86;35.48;100416.03;3587227;40;9861;-53
2021/06/03 11:37:27;;;;;;;;;7.00;7.00;;;;;23.95;37.73;100403.22;3590723;39;9921;-49